Terminal Aerodrome Forecast
Issued by NWS

Home | Current Version | Previous Version | Text Only | Print | Product List | Glossary On
Versions: 1 2 3 4 5 6 7 8 9 10 11 12 13 14 15 16 17 18 19 20 21 22 23 24
000
FTAK31 PAFA 281126
TAFAOT
TAF
PAOT 281126Z 2812/2912 27015G25KT 6SM -RA BR BKN007 OVC015
     FM281500 30018KT P6SM VCSH SCT007 BKN015 BKN035
     FM290300 30018KT P6SM SCT025 BKN035 BKN050=

USA.gov is the U.S. government's official web portal to all federal, state and local government web resources and services.